Pagina principală
METAR-TAF:

METAR-TAF

Aeroporturi :

Maiduguri, Nigeria

Latitudine: 11-51N, longitudine: 013-05E, elevație: 354 m

METAR: lipsă

Ora: 11:16 (10:16 UTC)

Prognoză

Raportul a fost făcut în urmă cu 11 ore și 16 de minute, la 23:00 UTC
Prognoză valabilă de la 21 ora 00 UTC la 22 ora 06 UTC
Vânt 2 kt din direcții variabile
Vizibilitate de 10 km sau mai mult
nu există nori sub 1.500 m și nici cumulonimbus

TAF: DNMA 202300Z 2100/2206 VRB02KT CAVOK

Observații și prognoze meteo pentru peste 4.000 de aeroporturi (rapoarte METAR și TAF).

Stațiile disponibile sunt reprezentate pe hartă prin puncte galbene și roșii.

Țineți indicatorul mouse-ului pe punctul dorit pentru a vedea denumirea stației.

Apoi, faceți clic pentru a vedea observațiile și prognozele meteorologice.

Pentru a schimba harta: Pentru mărire, faceți clic pe butoanele verzi cu cruce neagră; pentru micșorare, pe butonul verde cu o liniuță; pentru hărți învecinate, pe săgețile verzi.


METAR-TAF: